Time;durP1;ratioP1;P1;durP2;ratioP2;P2;SDS_P1;SDS_P2;PMS_P1;PMS_P2;Temp;Humidity;BMP_temperature;BMP_pressure;BME280_temperature;BME280_humidity;BME280_pressure;Samples;Min_cycle;Max_cycle;Signal;HPM_P1;HPM_P2
2021/12/21 00:01:16;;;;;;;15.53;8.23;;;;;;;-2.68;87.21;98549.27;1739819;81;21048;-56
2021/12/21 00:03:43;;;;;;;25.55;9.03;;;;;;;-2.73;87.03;98546.36;1739608;82;21056;-57
2021/12/21 00:06:10;;;;;;;18.17;9.15;;;;;;;-2.70;87.28;98551.80;1739398;81;21032;-56
2021/12/21 00:08:37;;;;;;;21.77;8.95;;;;;;;-2.73;87.64;98548.19;1739367;81;20981;-56
2021/12/21 00:11:04;;;;;;;15.93;8.20;;;;;;;-2.75;87.76;98554.98;1739442;81;21444;-56
2021/12/21 00:16:10;;;;;;;23.77;9.25;;;;;;;-2.76;87.93;98552.52;1717956;81;21005;-56
2021/12/21 00:18:36;;;;;;;22.32;8.65;;;;;;;-2.76;88.24;98551.19;1741196;81;20997;-56
2021/12/21 00:21:24;;;;;;;22.62;10.00;;;;;;;-2.75;88.47;98555.48;1741299;82;21008;-56
2021/12/21 00:23:45;;;;;;;29.05;11.78;;;;;;;-2.73;88.58;98554.32;1760314;81;21367;-56
2021/12/21 00:26:15;;;;;;;28.98;10.98;;;;;;;-2.69;88.69;98561.41;1774597;80;47835;-56
2021/12/21 00:31:19;;;;;;;26.33;12.25;;;;;;;-2.64;88.65;98565.67;1745280;82;20968;-56
2021/12/21 00:33:47;;;;;;;27.48;10.75;;;;;;;-2.57;88.17;98568.72;1763698;80;21487;-56
2021/12/21 00:36:16;;;;;;;21.50;11.28;;;;;;;-2.51;87.85;98571.66;1739902;82;21076;-56
2021/12/21 00:38:44;;;;;;;;;;;;;;;-2.50;87.50;98576.78;1766433;81;21716;-56
2021/12/21 00:41:11;;;;;;;19.10;12.03;;;;;;;-2.47;87.13;98573.78;1764160;81;20160;-56
2021/12/21 00:43:38;;;;;;;19.10;8.38;;;;;;;-2.44;86.94;98576.05;1739458;82;20965;-56
2021/12/21 00:46:05;;;;;;;14.23;6.53;;;;;;;-2.44;86.37;98571.25;1739767;82;20946;-56
2021/12/21 00:48:33;;;;;;;18.17;9.18;;;;;;;-2.44;86.25;98573.40;1739623;82;21412;-57
2021/12/21 00:51:05;;;;;;;19.92;9.50;;;;;;;-2.40;86.40;98576.50;1739589;82;20981;-56
2021/12/21 00:53:34;;;;;;;17.15;7.33;;;;;;;-2.38;86.05;98578.48;1739603;80;21453;-56
2021/12/21 00:56:00;;;;;;;19.07;7.50;;;;;;;-2.37;86.00;98590.75;1719264;82;20992;-59
2021/12/21 00:58:27;;;;;;;18.23;7.28;;;;;;;-2.38;85.57;98585.13;1739603;82;21529;-57
2021/12/21 01:00:54;;;;;;;19.07;8.85;;;;;;;-2.38;85.41;98593.91;1739426;82;21001;-56
2021/12/21 01:03:21;;;;;;;21.05;8.20;;;;;;;-2.40;84.83;98594.57;1739635;82;20997;-56
2021/12/21 01:08:24;;;;;;;21.50;10.13;;;;;;;-2.49;83.51;98594.85;1693268;80;20994;-57
2021/12/21 01:11:01;;;;;;;21.12;9.50;;;;;;;-2.48;83.87;98605.28;1739277;82;21367;-57
2021/12/21 01:16:00;;;;;;;;;;;;;;;-2.54;83.76;98595.92;1705642;82;21475;-56
2021/12/21 01:18:23;;;;;;;18.05;7.95;;;;;;;-2.63;83.47;98601.30;1746932;81;28516;-56
2021/12/21 01:20:53;;;;;;;19.35;8.50;;;;;;;-2.59;83.92;98597.27;1739180;82;21441;-57
2021/12/21 01:26:10;;;;;;;14.78;7.92;;;;;;;-2.56;83.33;98605.39;1739683;82;21848;-56
2021/12/21 01:28:45;;;;;;;19.98;8.68;;;;;;;-2.53;83.68;98609.00;1738492;82;21453;-57
2021/12/21 01:31:24;;;;;;;17.25;8.40;;;;;;;-2.56;83.53;98608.87;1738372;82;21037;-58
2021/12/21 01:33:53;;;;;;;20.57;8.15;;;;;;;-2.53;83.78;98609.00;1738485;82;21682;-58
2021/12/21 01:36:25;;;;;;;17.77;10.28;;;;;;;-2.54;83.49;98618.48;1738837;82;20985;-57
2021/12/21 01:38:59;;;;;;;96.08;36.53;;;;;;;-2.57;83.28;98607.70;1742431;82;21357;-57
2021/12/21 01:44:25;;;;;;;35.40;17.23;;;;;;;-2.63;83.03;98605.28;1731523;82;21567;-57
2021/12/21 01:49:44;;;;;;;21.17;10.55;;;;;;;-2.62;83.23;98607.44;1758259;81;21047;-57
2021/12/21 01:52:08;;;;;;;20.45;9.70;;;;;;;-2.62;83.23;98606.11;1757315;81;21368;-57
2021/12/21 01:54:35;;;;;;;;;;;;;;;-2.62;82.88;98601.63;1761041;81;21003;-57
2021/12/21 01:57:04;;;;;;;60.60;20.97;;;;;;;-2.66;82.29;98612.77;1758516;80;20447;-57
2021/12/21 01:59:32;;;;;;;31.95;15.10;;;;;;;-2.64;82.83;98611.60;1758424;81;21448;-57
2021/12/21 02:01:59;;;;;;;30.23;13.90;;;;;;;-2.61;83.18;98600.61;1742523;80;21013;-57
2021/12/21 02:04:26;;;;;;;24.40;13.00;;;;;;;-2.60;82.95;98602.77;1776287;79;21623;-57
2021/12/21 02:06:53;;;;;;;19.75;9.65;;;;;;;-2.57;83.15;98607.70;1777042;80;21040;-58
2021/12/21 02:09:23;;;;;;;14.43;8.13;;;;;;;-2.53;83.43;98605.02;1767665;80;21013;-57
2021/12/21 02:11:49;;;;;;;19.98;10.00;;;;;;;-2.49;83.28;98602.30;1763994;80;21597;-57
2021/12/21 02:14:16;;;;;;;15.95;8.43;;;;;;;-2.58;82.90;98592.78;1755787;81;21010;-57
2021/12/21 02:16:54;;;;;;;14.03;8.90;;;;;;;-2.50;83.19;98591.87;1761164;80;21378;-57
2021/12/21 02:19:24;;;;;;;21.00;8.50;;;;;;;-2.47;83.35;98592.36;1737845;82;28064;-57
2021/12/21 02:21:49;;;;;;;16.23;8.98;;;;;;;-2.49;83.28;98594.34;1738206;82;21008;-57
2021/12/21 02:24:17;;;;;;;16.97;8.85;;;;;;;-2.54;83.02;98591.43;1739186;80;21004;-57
2021/12/21 02:26:51;;;;;;;20.40;7.95;;;;;;;-2.51;83.38;98591.56;1739376;82;21558;-56
2021/12/21 02:29:25;;;;;;;17.48;7.60;;;;;;;-2.47;83.40;98598.17;1735331;82;21346;-57
2021/12/21 02:31:48;;;;;;;14.15;8.05;;;;;;;-2.46;82.88;98591.34;1736414;82;21413;-56
2021/12/21 02:34:16;;;;;;;15.93;6.37;;;;;;;-2.45;83.13;98591.66;1739487;81;21023;-57
2021/12/21 02:36:46;;;;;;;11.83;6.83;;;;;;;-2.48;82.16;98592.01;1739508;82;21524;-57
2021/12/21 02:39:13;;;;;;;14.18;6.67;;;;;;;-2.46;82.66;98590.52;1739601;81;21008;-57
2021/12/21 02:41:41;;;;;;;18.20;7.45;;;;;;;-2.49;82.70;98589.03;1739811;82;21004;-57
2021/12/21 02:44:08;;;;;;;10.85;5.47;;;;;;;-2.47;82.90;98591.53;1739516;82;21112;-57
2021/12/21 02:46:35;;;;;;;13.68;6.05;;;;;;;-2.49;81.94;98595.67;1739805;82;21520;-57
2021/12/21 02:49:02;;;;;;;13.68;7.45;;;;;;;-2.46;82.25;98592.67;1739523;82;21064;-57
2021/12/21 02:51:29;;;;;;;15.32;8.00;;;;;;;-2.47;82.08;98593.68;1739884;82;21000;-57
2021/12/21 02:53:56;;;;;;;13.13;7.00;;;;;;;-2.43;82.62;98588.31;1739683;82;21246;-57
2021/12/21 02:56:23;;;;;;;18.48;6.92;;;;;;;-2.40;82.70;98583.95;1739702;82;21457;-57
2021/12/21 02:58:50;;;;;;;17.57;9.55;;;;;;;-2.39;82.82;98590.12;1739663;80;21599;-57
2021/12/21 03:01:17;;;;;;;16.57;8.35;;;;;;;-2.40;81.73;98583.13;1739827;82;21452;-57
2021/12/21 03:03:44;;;;;;;17.17;8.20;;;;;;;-2.38;82.51;98585.95;1739769;81;21064;-57
2021/12/21 03:06:29;;;;;;;19.92;8.80;;;;;;;-2.36;82.23;98587.09;1739722;82;21292;-57
2021/12/21 03:08:44;;;;;;;20.85;9.65;;;;;;;-2.36;81.80;98597.70;1736401;82;21860;-57
2021/12/21 03:11:18;;;;;;;20.32;9.13;;;;;;;-2.33;82.45;98599.98;1737470;82;28282;-57
2021/12/21 03:16:19;;;;;;;13.48;7.53;;;;;;;-2.29;82.46;98606.59;1724821;82;21306;-57
2021/12/21 03:18:46;;;;;;;14.07;8.05;;;;;;;-2.35;82.26;98588.23;1751406;80;21435;-57
2021/12/21 03:21:13;;;;;;;12.80;8.13;;;;;;;-2.39;82.22;98590.12;1748030;81;21468;-57
2021/12/21 03:23:43;;;;;;;13.13;7.42;;;;;;;-2.42;82.70;98597.09;1741963;82;20996;-57
2021/12/21 03:26:09;;;;;;;16.50;7.20;;;;;;;-2.43;83.14;98588.82;1741822;81;21012;-57
2021/12/21 03:28:36;;;;;;;13.25;7.47;;;;;;;-2.38;83.05;98563.89;1741996;82;21072;-57
2021/12/21 03:31:03;;;;;;;14.98;8.43;;;;;;;-2.42;83.07;98574.03;1745601;81;21416;-57
2021/12/21 03:33:30;;;;;;;16.37;7.72;;;;;;;-2.40;82.98;98567.20;1751905;80;21007;-57
2021/12/21 03:36:00;;;;;;;12.70;6.42;;;;;;;-2.42;82.92;98561.27;1751949;81;21023;-57
2021/12/21 03:38:27;;;;;;;14.83;6.45;;;;;;;-2.42;82.86;98559.44;1749213;80;21988;-57
2021/12/21 03:41:01;;;;;;;12.50;5.95;;;;;;;-2.41;82.86;98565.06;1743932;81;21054;-57
2021/12/21 03:43:22;;;;;;;;;;;;;;;-2.37;82.83;98569.02;1752097;80;21543;-57
2021/12/21 03:45:58;;;;;;;14.70;7.62;;;;;;;-2.39;82.78;98570.20;1737278;82;20192;-57
2021/12/21 03:48:18;;;;;;;18.17;7.87;;;;;;;-2.41;82.58;98567.72;1736278;82;20981;-57
2021/12/21 03:50:45;;;;;;;16.60;6.97;;;;;;;-2.38;82.72;98573.18;1737260;82;20994;-57
2021/12/21 03:53:12;;;;;;;14.05;7.08;;;;;;;-2.36;82.84;98570.66;1737507;82;21017;-57
2021/12/21 03:55:39;;;;;;;14.23;7.22;;;;;;;-2.34;82.69;98565.16;1737300;82;21547;-57
2021/12/21 03:58:06;;;;;;;13.58;7.78;;;;;;;-2.31;82.75;98574.06;1737366;81;21084;-57
2021/12/21 04:00:33;;;;;;;18.40;7.97;;;;;;;-2.30;82.77;98571.25;1737378;82;21067;-56
2021/12/21 04:02:59;;;;;;;13.25;7.42;;;;;;;-2.31;82.45;98579.38;1737462;81;21076;-57
2021/12/21 04:05:26;;;;;;;11.57;6.53;;;;;;;-2.27;82.88;98580.67;1737482;82;20992;-57
2021/12/21 04:07:53;;;;;;;15.18;6.92;;;;;;;-2.22;82.89;98584.09;1737272;82;21579;-57
2021/12/21 04:10:20;;;;;;;20.43;7.87;;;;;;;-2.19;82.91;98583.73;1737223;82;20976;-57
2021/12/21 04:12:47;;;;;;;15.30;8.20;;;;;;;-2.18;82.66;98581.40;1737686;82;21248;-57
2021/12/21 04:15:16;;;;;;;15.00;7.12;;;;;;;-2.17;82.78;98581.72;1737330;82;21497;-57
2021/12/21 04:17:43;;;;;;;14.68;7.35;;;;;;;-2.12;82.98;98586.80;1739589;81;20997;-56
2021/12/21 04:20:11;;;;;;;12.85;7.22;;;;;;;-2.09;82.92;98585.09;1758325;81;21388;-56
2021/12/21 04:22:37;;;;;;;14.18;7.40;;;;;;;-2.11;82.89;98584.97;1737506;82;21045;-57
2021/12/21 04:25:06;;;;;;;12.55;6.25;;;;;;;-2.07;82.86;98599.00;1737282;82;21048;-57
2021/12/21 04:27:33;;;;;;;12.82;6.70;;;;;;;-2.14;82.72;98594.11;1737608;82;24375;-57
2021/12/21 04:30:00;;;;;;;15.45;6.28;;;;;;;-2.14;83.07;98589.30;1737326;82;20984;-57
2021/12/21 04:32:27;;;;;;;16.65;7.25;;;;;;;-2.15;82.82;98588.98;1737315;82;21423;-57
2021/12/21 04:34:54;;;;;;;13.88;7.70;;;;;;;-2.17;82.74;98590.50;1737051;82;21052;-57
2021/12/21 04:37:22;;;;;;;15.60;8.10;;;;;;;-2.21;82.77;98599.04;1737666;82;20992;-57
2021/12/21 04:39:58;;;;;;;14.83;8.43;;;;;;;-2.19;82.77;98597.02;1737414;80;21614;-57
2021/12/21 04:42:18;;;;;;;13.90;8.83;;;;;;;-2.20;82.96;98593.53;1736395;82;21076;-57
2021/12/21 04:44:45;;;;;;;18.00;8.85;;;;;;;-2.21;82.92;98601.69;1737419;82;21306;-57
2021/12/21 04:47:12;;;;;;;15.58;8.43;;;;;;;-2.19;82.95;98596.51;1737553;82;20976;-57
2021/12/21 04:49:39;;;;;;;13.68;7.55;;;;;;;-2.18;83.17;98597.33;1737280;80;21508;-57
2021/12/21 04:52:06;;;;;;;18.95;8.98;;;;;;;-2.22;83.54;98606.66;1737544;82;20988;-57
2021/12/21 04:54:33;;;;;;;14.50;8.60;;;;;;;-2.22;83.40;98598.69;1737199;82;21437;-57
2021/12/21 04:57:00;;;;;;;16.20;8.00;;;;;;;-2.27;83.55;98596.61;1737432;82;21389;-57
2021/12/21 04:59:27;;;;;;;14.90;7.75;;;;;;;-2.32;83.76;98598.97;1737328;82;21000;-57
2021/12/21 05:01:54;;;;;;;18.23;8.53;;;;;;;-2.31;83.70;98601.47;1737691;82;21290;-57
2021/12/21 05:04:21;;;;;;;13.75;8.40;;;;;;;-2.35;83.92;98595.37;1737180;82;21449;-57
2021/12/21 05:06:49;;;;;;;15.68;6.67;;;;;;;-2.36;83.83;98613.13;1737674;82;21013;-57
2021/12/21 05:09:24;;;;;;;14.30;6.55;;;;;;;-2.33;83.95;98614.58;1737165;82;21408;-57
2021/12/21 05:11:44;;;;;;;16.30;7.95;;;;;;;-2.33;83.75;98609.27;1736440;82;21381;-57
2021/12/21 05:14:11;;;;;;;13.55;8.95;;;;;;;-2.34;83.78;98611.61;1738057;82;21405;-56
2021/12/21 05:16:38;;;;;;;20.05;9.00;;;;;;;-2.32;84.05;98609.59;1762740;80;21001;-57
2021/12/21 05:19:05;;;;;;;19.23;10.00;;;;;;;-2.32;83.90;98614.90;1739695;82;21020;-57
2021/12/21 05:21:33;;;;;;;21.23;8.05;;;;;;;-2.34;84.07;98608.95;1764384;80;21400;-56
2021/12/21 05:24:00;;;;;;;27.58;12.30;;;;;;;-2.31;84.00;98613.41;1739525;81;21012;-57
2021/12/21 05:26:27;;;;;;;23.80;13.30;;;;;;;-2.33;84.03;98611.93;1764256;81;21048;-56
2021/12/21 05:28:54;;;;;;;28.07;13.00;;;;;;;-2.40;84.01;98616.31;1750786;80;21428;-57
2021/12/21 05:31:21;;;;;;;19.62;10.28;;;;;;;-2.35;84.00;98617.93;1742214;82;21008;-57
2021/12/21 05:33:51;;;;;;;15.80;8.88;;;;;;;-2.33;83.97;98612.75;1744384;81;21404;-57
2021/12/21 05:36:17;;;;;;;19.92;10.25;;;;;;;-2.39;84.77;98610.02;1743789;81;21428;-57
2021/12/21 05:38:49;;;;;;;19.77;10.18;;;;;;;-2.44;85.92;98613.72;1744101;81;22166;-57
2021/12/21 05:41:22;;;;;;;20.30;10.03;;;;;;;-2.54;86.36;98613.98;1752304;81;20989;-57
2021/12/21 05:43:42;;;;;;;48.90;23.02;;;;;;;-2.53;85.91;98614.30;1755045;80;21688;-57
2021/12/21 05:46:09;;;;;;;49.50;26.60;;;;;;;-2.49;85.45;98608.94;1749448;81;21468;-56
2021/12/21 05:48:36;;;;;;;34.08;18.07;;;;;;;-2.49;85.96;98610.77;1739002;80;21587;-57
2021/12/21 05:51:02;;;;;;;28.47;17.30;;;;;;;-2.53;85.63;98606.84;1763934;81;21398;-57
2021/12/21 05:53:29;;;;;;;24.67;14.98;;;;;;;-2.47;85.43;98609.61;1764120;79;21039;-57
2021/12/21 05:55:56;;;;;;;27.00;13.98;;;;;;;-2.42;85.51;98607.72;1764696;80;21021;-57
2021/12/21 05:58:23;;;;;;;22.10;11.40;;;;;;;-2.43;85.62;98610.88;1735394;82;21305;-57
2021/12/21 06:00:51;;;;;;;28.35;15.05;;;;;;;-2.41;85.53;98614.16;1729811;80;21051;-57
2021/12/21 06:03:18;;;;;;;16.23;9.28;;;;;;;-2.38;85.26;98608.52;1733867;80;21057;-57
2021/12/21 06:05:46;;;;;;;32.80;15.80;;;;;;;-2.36;85.19;98613.63;1742505;80;21052;-57
2021/12/21 06:08:12;;;;;;;44.60;30.68;;;;;;;-2.34;85.16;98612.94;1739696;82;21005;-57
2021/12/21 06:10:41;;;;;;;31.27;18.90;;;;;;;-2.35;85.10;98612.12;1744650;82;22021;-57
2021/12/21 06:26:15;;;;;;;30.92;18.25;;;;;;;-2.37;85.03;98634.05;1771054;80;21023;-57
2021/12/21 06:28:44;;;;;;;34.13;18.70;;;;;;;-2.33;85.26;98633.17;1776990;79;20950;-57
2021/12/21 06:31:11;;;;;;;;;;;;;;;-2.33;85.94;98634.49;1752001;81;21046;-57
2021/12/21 06:33:38;;;;;;;18.85;12.05;;;;;;;-2.30;85.52;98647.42;1776972;80;20155;-57
2021/12/21 06:36:07;;;;;;;19.12;11.73;;;;;;;-2.31;86.54;98648.41;1721624;82;21092;-57
2021/12/21 06:38:35;;;;;;;24.10;12.23;;;;;;;-2.31;85.97;98645.27;1737320;81;21862;-57
2021/12/21 06:41:02;;;;;;;22.93;10.68;;;;;;;-2.30;85.95;98649.57;1741778;82;21020;-57
2021/12/21 06:43:30;;;;;;;20.05;11.45;;;;;;;-2.31;85.65;98649.73;1757749;80;21056;-56
2021/12/21 06:46:15;;;;;;;18.62;9.85;;;;;;;-2.30;85.63;98648.75;1752529;80;20988;-57
2021/12/21 06:53:57;;;;;;;20.95;11.60;;;;;;;-2.49;88.40;98652.73;1759451;79;21123;-57
2021/12/21 06:56:26;;;;;;;55.40;29.87;;;;;;;-2.51;87.98;98653.42;1737248;81;21021;-57
2021/12/21 06:58:55;;;;;;;60.08;31.65;;;;;;;-2.66;88.69;98653.39;1734586;79;21020;-57
2021/12/21 07:01:25;;;;;;;87.62;40.80;;;;;;;-2.68;89.07;98658.06;1732367;82;21522;-58
2021/12/21 07:03:52;;;;;;;59.60;29.82;;;;;;;-2.75;89.64;98660.27;1731612;81;21053;-57
2021/12/21 07:06:20;;;;;;;32.42;15.28;;;;;;;-2.80;90.44;98659.50;1727295;82;21029;-57
2021/12/21 07:08:55;;;;;;;26.87;19.67;;;;;;;-2.84;91.31;98660.84;1729084;81;21710;-58
2021/12/21 07:19:15;;;;;;;80.80;29.87;;;;;;;-2.67;88.74;98676.95;1734062;82;21100;-57
2021/12/21 07:21:41;;;;;;;26.05;12.73;;;;;;;-2.61;88.32;98682.87;1733377;81;21001;-57
2021/12/21 07:24:08;;;;;;;27.35;14.15;;;;;;;-2.57;88.35;98685.48;1739815;80;23132;-57
2021/12/21 07:26:35;;;;;;;76.25;26.93;;;;;;;-2.50;88.26;98680.28;1759282;80;21049;-56
2021/12/21 07:29:03;;;;;;;36.35;17.90;;;;;;;-2.42;88.14;98686.02;1736904;81;20961;-57
2021/12/21 07:31:30;;;;;;;113.22;37.08;;;;;;;-2.40;87.72;98675.53;1752527;80;21036;-58
2021/12/21 07:33:58;;;;;;;43.80;22.50;;;;;;;-2.42;88.32;98682.86;1747594;81;21122;-57
2021/12/21 07:36:31;;;;;;;43.95;22.58;;;;;;;-2.40;88.72;98690.64;1751422;79;21036;-57
2021/12/21 07:39:00;;;;;;;36.70;21.00;;;;;;;-2.45;89.54;98692.52;1774874;80;21027;-59
2021/12/21 07:41:27;;;;;;;21.90;13.40;;;;;;;-2.43;89.28;98696.31;1756084;80;21409;-57
2021/12/21 07:43:54;;;;;;;21.05;11.10;;;;;;;-2.52;89.90;98691.59;1750871;81;21091;-58
2021/12/21 07:46:21;;;;;;;19.27;11.93;;;;;;;-2.54;90.70;98706.05;1756079;80;21039;-57
2021/12/21 07:48:48;;;;;;;22.40;11.63;;;;;;;-2.54;90.75;98701.56;1761416;80;21403;-57
2021/12/21 07:51:15;;;;;;;29.65;13.88;;;;;;;-2.54;90.97;98708.20;1750289;80;21162;-57
2021/12/21 07:53:43;;;;;;;30.20;15.50;;;;;;;-2.53;91.09;98699.73;1753753;80;21130;-57
2021/12/21 07:56:10;;;;;;;32.98;14.25;;;;;;;-2.43;90.63;98701.62;1752295;80;21033;-57
2021/12/21 07:58:36;;;;;;;21.77;12.10;;;;;;;-2.40;90.12;98704.73;1750207;80;21452;-57
2021/12/21 08:01:05;;;;;;;23.95;12.35;;;;;;;-2.37;89.43;98704.39;1746773;81;21460;-57
2021/12/21 08:03:33;;;;;;;22.02;10.60;;;;;;;-2.34;88.39;98701.36;1754934;80;22137;-57
2021/12/21 08:06:02;;;;;;;33.40;18.63;;;;;;;-2.28;87.59;98699.83;1762222;79;21486;-57
2021/12/21 08:08:30;;;;;;;25.55;13.45;;;;;;;-2.28;87.59;98699.83;1747558;80;21573;-57
2021/12/21 08:11:14;;;;;;;34.38;17.30;;;;;;;-2.21;87.27;98699.94;1736337;81;21028;-57
2021/12/21 08:13:40;;;;;;;29.37;17.05;;;;;;;-2.16;86.93;98706.33;1740268;81;21555;-57
2021/12/21 08:16:07;;;;;;;26.52;13.58;;;;;;;-2.09;87.31;98705.11;1743273;81;21707;-58
2021/12/21 08:18:34;;;;;;;156.40;60.28;;;;;;;-2.10;86.65;98710.10;1759613;80;21504;-57
2021/12/21 08:21:01;;;;;;;72.75;34.80;;;;;;;-2.02;86.90;98712.67;1737368;80;20997;-57
2021/12/21 08:23:28;;;;;;;36.90;18.02;;;;;;;-2.00;87.06;98720.77;1731322;81;21053;-57
2021/12/21 08:25:56;;;;;;;26.73;13.60;;;;;;;-2.01;86.48;98712.99;1737552;81;21036;-56
2021/12/21 08:28:23;;;;;;;25.50;13.50;;;;;;;-2.09;85.47;98717.88;1757161;80;21051;-57
2021/12/21 08:30:51;;;;;;;26.90;13.95;;;;;;;-2.02;84.72;98720.14;1735961;82;21040;-57
2021/12/21 08:33:18;;;;;;;32.17;17.62;;;;;;;-2.01;85.47;98723.61;1751350;80;21111;-57
2021/12/21 08:35:46;;;;;;;30.77;17.92;;;;;;;-1.91;85.94;98726.00;1757692;80;21419;-57
2021/12/21 08:38:16;;;;;;;28.55;16.25;;;;;;;-1.91;85.67;98728.16;1766871;80;21434;-58
2021/12/21 08:40:43;;;;;;;28.00;16.50;;;;;;;-1.94;84.95;98725.05;1751990;79;21026;-57
2021/12/21 08:43:13;;;;;;;29.42;16.48;;;;;;;-1.90;85.35;98732.45;1748892;80;21075;-57
2021/12/21 08:45:42;;;;;;;41.92;18.98;;;;;;;-1.82;85.43;98730.21;1735683;82;21086;-57
2021/12/21 08:48:10;;;;;;;64.03;29.32;;;;;;;-1.89;84.66;98738.59;1760829;80;21015;-57
2021/12/21 08:50:36;;;;;;;31.97;15.90;;;;;;;-1.98;84.15;98737.85;1737642;80;21452;-57
2021/12/21 08:53:03;;;;;;;38.23;20.15;;;;;;;-2.10;82.73;98734.00;1760501;80;21017;-57
2021/12/21 08:55:32;;;;;;;34.45;15.88;;;;;;;-2.10;82.51;98736.16;1753282;80;21460;-57
2021/12/21 08:57:59;;;;;;;38.20;16.77;;;;;;;-2.08;83.04;98742.61;1755057;80;21075;-57
2021/12/21 09:00:25;;;;;;;28.38;14.28;;;;;;;-2.00;83.36;98743.86;1742720;80;23344;-56
2021/12/21 09:02:53;;;;;;;32.15;15.88;;;;;;;-2.07;82.61;98738.94;1740329;81;21079;-57
2021/12/21 09:05:21;;;;;;;23.80;12.65;;;;;;;-2.07;82.95;98752.22;1748188;80;21401;-57
2021/12/21 09:07:50;;;;;;;19.85;11.95;;;;;;;-2.16;82.26;98753.31;1759905;80;21091;-57
2021/12/21 09:10:18;;;;;;;25.15;11.93;;;;;;;-2.21;82.60;98750.39;1755778;79;21052;-56
2021/12/21 09:12:45;;;;;;;20.10;10.53;;;;;;;-2.18;80.37;98747.36;1775311;80;21013;-57
2021/12/21 09:15:12;;;;;;;19.70;10.58;;;;;;;-2.15;80.67;98753.13;1734378;82;21556;-57
2021/12/21 09:17:40;;;;;;;23.83;10.98;;;;;;;-2.12;80.99;98750.13;1732712;81;21000;-56
2021/12/21 09:20:08;;;;;;;17.40;9.00;;;;;;;-2.08;80.88;98759.36;1754105;80;21425;-56
2021/12/21 09:22:39;;;;;;;22.27;10.47;;;;;;;-1.97;81.39;98751.95;1725773;80;21074;-56
2021/12/21 09:25:06;;;;;;;19.37;7.92;;;;;;;-1.93;81.39;98757.24;1759820;80;21080;-57
2021/12/21 09:27:33;;;;;;;15.55;8.10;;;;;;;-1.90;79.68;98759.52;1760599;80;21012;-57
2021/12/21 09:30:01;;;;;;;29.35;13.60;;;;;;;-1.93;79.44;98755.91;1740145;81;21970;-58
2021/12/21 09:32:28;;;;;;;18.60;10.90;;;;;;;-1.94;79.12;98760.41;1734639;81;20976;-57
2021/12/21 09:34:54;;;;;;;25.62;14.05;;;;;;;-1.90;79.64;98748.90;1768724;79;21053;-57
2021/12/21 09:37:21;;;;;;;17.50;9.18;;;;;;;-1.92;79.64;98760.22;1769377;80;20956;-57
2021/12/21 09:39:51;;;;;;;20.45;9.90;;;;;;;-1.89;79.85;98750.55;1742112;80;21038;-57
2021/12/21 09:42:21;;;;;;;22.70;13.78;;;;;;;-1.84;80.73;98752.16;1713850;82;21051;-57
2021/12/21 09:44:48;;;;;;;21.93;13.05;;;;;;;-1.89;79.99;98758.52;1736479;80;20965;-58
2021/12/21 09:47:15;;;;;;;16.17;9.68;;;;;;;-1.92;80.67;98750.41;1744260;81;21631;-57
2021/12/21 09:49:43;;;;;;;20.52;9.85;;;;;;;-1.93;80.36;98755.41;1737210;82;21409;-58
2021/12/21 09:52:12;;;;;;;30.48;14.13;;;;;;;-2.07;80.19;98763.67;1735696;82;21067;-57
2021/12/21 09:54:39;;;;;;;17.87;9.95;;;;;;;-2.18;80.61;98761.46;1762004;79;21434;-57
2021/12/21 09:57:06;;;;;;;14.10;7.03;;;;;;;-2.06;81.00;98763.98;1737496;80;21020;-56
2021/12/21 09:59:34;;;;;;;19.82;10.25;;;;;;;-2.09;81.41;98762.20;1739669;81;21004;-57
2021/12/21 10:02:02;;;;;;;17.25;10.78;;;;;;;-2.16;80.96;98759.44;1738706;82;21024;-57
2021/12/21 10:04:29;;;;;;;18.15;10.85;;;;;;;-1.95;81.32;98764.06;1758574;80;21173;-57
2021/12/21 10:06:57;;;;;;;16.40;10.58;;;;;;;-1.87;81.44;98763.98;1769010;78;21056;-57
2021/12/21 10:09:34;;;;;;;12.85;7.37;;;;;;;-1.95;81.04;98761.41;1761282;80;21095;-57
2021/12/21 10:12:00;;;;;;;11.68;6.50;;;;;;;-1.89;81.00;98763.83;1731621;81;21051;-57
2021/12/21 10:14:27;;;;;;;20.45;9.83;;;;;;;-1.83;81.40;98759.13;1760138;80;21010;-57
2021/12/21 10:17:09;;;;;;;20.25;10.40;;;;;;;-1.77;81.36;98758.40;1736757;82;21093;-57
2021/12/21 10:19:37;;;;;;;16.42;8.00;;;;;;;-1.74;81.04;98756.19;1736291;82;21116;-57
2021/12/21 10:22:12;;;;;;;16.20;9.58;;;;;;;-1.80;81.21;98762.23;1736475;82;21092;-57
2021/12/21 10:24:49;;;;;;;18.60;9.40;;;;;;;-1.66;81.39;98760.59;1732732;81;21012;-57
2021/12/21 10:27:18;;;;;;;16.57;10.05;;;;;;;-1.57;81.59;98756.83;1734273;82;21013;-56
2021/12/21 10:29:50;;;;;;;15.72;10.78;;;;;;;-1.56;81.10;98758.48;1738090;82;21734;-57
2021/12/21 10:32:20;;;;;;;18.55;10.55;;;;;;;-1.56;81.29;98762.97;1738726;81;21761;-57
2021/12/21 10:34:56;;;;;;;14.10;8.95;;;;;;;-1.78;81.30;98762.89;1767206;80;21108;-57
2021/12/21 10:37:30;;;;;;;12.70;8.30;;;;;;;-1.74;81.39;98758.02;1761641;80;21175;-57
2021/12/21 10:40:28;;;;;;;13.25;8.60;;;;;;;-1.83;81.20;98759.13;1770634;80;21448;-57
2021/12/21 10:43:04;;;;;;;16.65;7.08;;;;;;;-1.83;81.32;98747.98;1742222;81;21063;-57
2021/12/21 10:45:38;;;;;;;15.80;7.35;;;;;;;-1.89;80.59;98751.87;1753233;79;21026;-57
2021/12/21 10:48:07;;;;;;;10.15;5.20;;;;;;;-1.98;80.21;98757.77;1750212;80;21123;-56
2021/12/21 10:50:34;;;;;;;9.60;5.50;;;;;;;-2.05;79.84;98758.17;1745971;80;21036;-57
2021/12/21 10:53:03;;;;;;;9.23;3.92;;;;;;;-1.92;80.69;98751.73;1737970;81;21144;-56
2021/12/21 10:55:38;;;;;;;9.58;5.00;;;;;;;-1.82;80.53;98747.48;1733228;82;21029;-57
2021/12/21 10:58:16;;;;;;;8.75;4.62;;;;;;;-1.84;79.92;98746.84;1737028;82;21211;-56
2021/12/21 11:00:48;;;;;;;10.27;6.03;;;;;;;-1.89;79.90;98751.36;1737784;81;21041;-56
2021/12/21 11:03:17;;;;;;;10.75;5.25;;;;;;;-1.95;79.15;98750.79;1728508;82;21002;-57
2021/12/21 11:05:46;;;;;;;13.80;7.72;;;;;;;-2.19;79.18;98753.17;1728591;81;21055;-56
2021/12/21 11:08:24;;;;;;;8.68;5.75;;;;;;;-2.08;79.50;98753.23;1727401;81;22297;-57
2021/12/21 11:10:56;;;;;;;11.03;5.55;;;;;;;-2.18;78.66;98756.15;1729891;82;21103;-57
2021/12/21 11:13:20;;;;;;;16.45;6.08;;;;;;;-2.15;78.58;98754.95;1731041;81;21001;-57
2021/12/21 11:15:53;;;;;;;14.45;6.60;;;;;;;-2.06;78.65;98756.52;1731817;82;21032;-57
2021/12/21 11:18:20;;;;;;;12.43;6.90;;;;;;;-2.09;78.04;98753.73;1736498;82;20968;-56
2021/12/21 11:20:50;;;;;;;14.13;7.97;;;;;;;-1.95;78.96;98750.79;1743066;81;20996;-57
2021/12/21 11:23:19;;;;;;;12.60;7.30;;;;;;;-1.89;79.21;98749.22;1742625;81;21033;-55
2021/12/21 11:25:48;;;;;;;14.60;6.87;;;;;;;-2.02;76.32;98747.20;1740365;80;20993;-57
2021/12/21 11:28:25;;;;;;;14.50;6.83;;;;;;;-1.96;77.94;98744.33;1739924;80;21457;-57
2021/12/21 11:30:55;;;;;;;14.28;8.25;;;;;;;-2.19;75.23;98747.86;1746027;80;21047;-56
2021/12/21 11:33:22;;;;;;;20.25;8.18;;;;;;;-2.08;76.92;98734.13;1740730;80;21087;-57
2021/12/21 11:38:20;;;;;;;14.75;8.98;;;;;;;-2.14;75.93;98732.20;1705634;79;21342;-57
2021/12/21 11:40:47;;;;;;;98.97;29.05;;;;;;;-2.03;77.50;98732.27;1736545;81;21438;-55
2021/12/21 11:43:25;;;;;;;48.17;18.23;;;;;;;-1.96;78.10;98728.40;1756253;80;20949;-57
2021/12/21 11:46:09;;;;;;;26.90;13.63;;;;;;;-1.89;76.93;98735.42;1715066;81;21548;-57
2021/12/21 11:49:05;;;;;;;22.13;10.75;;;;;;;-1.79;77.39;98738.66;1729743;81;21036;-57
2021/12/21 11:51:32;;;;;;;25.45;10.75;;;;;;;-1.72;77.26;98734.74;1733396;82;21028;-57
2021/12/21 11:53:59;;;;;;;119.25;41.37;;;;;;;-1.59;77.92;98736.77;1736119;81;21044;-57
2021/12/21 11:56:27;;;;;;;61.25;23.55;;;;;;;-1.43;77.97;98729.92;1746572;80;21572;-56
2021/12/21 11:58:56;;;;;;;19.85;10.48;;;;;;;-1.40;77.11;98728.72;1741858;81;21418;-57
2021/12/21 12:01:26;;;;;;;15.20;7.40;;;;;;;-1.44;74.32;98728.28;1733868;81;21416;-56
2021/12/21 12:04:08;;;;;;;53.00;20.77;;;;;;;-1.46;75.83;98724.45;1757055;80;21495;-57
2021/12/21 12:06:50;;;;;;;22.27;9.45;;;;;;;-1.54;74.01;98725.91;1762255;80;20982;-56
2021/12/21 12:09:29;;;;;;;129.85;41.28;;;;;;;-1.50;75.11;98724.52;1738352;81;20957;-57
2021/12/21 12:12:16;;;;;;;28.25;13.90;;;;;;;-1.46;75.33;98728.44;1741512;81;21034;-57
2021/12/21 12:14:46;;;;;;;18.82;9.03;;;;;;;-1.44;73.42;98722.45;1740064;81;21605;-57
2021/12/21 12:17:18;;;;;;;25.85;11.00;;;;;;;-1.39;72.27;98725.87;1742710;81;20973;-57
2021/12/21 12:20:02;;;;;;;41.92;15.63;;;;;;;-1.02;74.35;98728.87;1761751;80;21020;-57